Skagway, AK (99840)

11:08 PM AKDT on September 30, 2016 (GMT -0800)
Skagway | | Change Station

Elev 16 ft 59.46 °N, 135.32 °W | Updated 15 minutes ago

Clear
Clear
49 °F
Feels Like 49 °F
N
4
Wind Variable Wind from ENE

Today
High -- | Low -- °F
--% Chance of Precip.
Yesterday
High -- | Low -- °F
Precip. -- in
Pressure 30.36 in
Visibility 10.0 miles
Clouds Clear
Dew Point 27 °F
Humidity 43%
Rainfall 0.00 in
Snow Depth Not available.
7:05 AM 6:34 PM
New Moon, 0% visible
METAR PAGY 010653Z AUTO 07003KT 10SM CLR 09/M03 A3036 RMK AO2 SLP280 T00941028 TSNO
Pressure 30.36 in
Visibility 10.0 miles
Clouds Clear
Dew Point 27 °F
Humidity 43%
Rainfall 0.00 in
Snow Depth Not available.
7:05 AM 6:34 PM
New Moon, 0% visible
METAR PAGY 010653Z AUTO 07003KT 10SM CLR 09/M03 A3036 RMK AO2 SLP280 T00941028 TSNO

10-Day Weather Forecast

Almanac

Astronomy

Sep. 30, 2016 Rise Set
Actual Time
Civil Twilight
Nautical Twilight
Astronomical Twilight
Moon
Length of Visible Light
Length of Day
Tomorrow will be .
, % of the Moon is Illuminated

Today's Extremes

State Highs State Lows

Community

WunderPhotos

Upload Photos

1,942,898 photos uploaded!

WunderBlog® & News

Nearby

Air Quality

  Air Quality AQ Index Pollutant
Not available.

Snow Depth

Station Depth Elevation

Earthquake Activity

City Distance Mag. Time & Date
Minimum magnitude displayed is 2.5.

Coastal Water Temperatures

Place Temperature

Stations

Nearby Weather Stations

Station Location Temp. Windchill Dew Point Humidity Wind Precip. Elev Updated Type
                   

Watches & Warnings

There are currently no watches in effect.